Time;durP1;ratioP1;P1;durP2;ratioP2;P2;SDS_P1;SDS_P2;PMS_P1;PMS_P2;Temp;Humidity;BMP_temperature;BMP_pressure;BME280_temperature;BME280_humidity;BME280_pressure;Samples;Min_cycle;Max_cycle;Signal;HPM_P1;HPM_P2
2022/09/29 00:00:52;;;;;;;0.57;0.45;;;;;;;0.38;100.00;99359.22;5002655;28;20041;-54
2022/09/29 00:03:19;;;;;;;2.80;0.77;;;;;;;0.35;100.00;99351.72;5008976;28;20648;-53
2022/09/29 00:05:53;;;;;;;2.88;0.68;;;;;;;0.33;100.00;99355.44;5011525;28;20113;-52
2022/09/29 00:08:19;;;;;;;0.77;0.40;;;;;;;0.32;100.00;99361.63;5008701;28;21098;-56
2022/09/29 00:10:45;;;;;;;2.35;0.88;;;;;;;0.28;100.00;99358.50;5010834;28;20022;-52
2022/09/29 00:13:11;;;;;;;2.05;0.25;;;;;;;0.28;100.00;99360.28;5011322;28;20471;-54
2022/09/29 00:15:37;;;;;;;1.30;0.38;;;;;;;0.26;100.00;99341.38;5011420;28;20026;-55
2022/09/29 00:18:03;;;;;;;1.35;0.57;;;;;;;0.22;100.00;99340.88;5009507;28;20030;-53
2022/09/29 00:20:29;;;;;;;0.75;0.25;;;;;;;0.24;100.00;99338.94;5008609;28;20108;-52
2022/09/29 00:22:54;;;;;;;1.63;0.63;;;;;;;0.24;100.00;99341.53;5009065;28;20117;-51
2022/09/29 00:25:20;;;;;;;0.47;0.30;;;;;;;0.24;100.00;99335.50;5009042;28;20077;-50
2022/09/29 00:27:45;;;;;;;0.65;0.50;;;;;;;0.21;100.00;99331.41;5010847;28;20096;-50
2022/09/29 00:30:11;;;;;;;1.63;1.33;;;;;;;0.17;100.00;99338.72;5007131;28;20264;-53
2022/09/29 00:32:37;;;;;;;3.15;0.68;;;;;;;0.10;100.00;99332.47;5005460;28;20092;-51
2022/09/29 00:35:02;;;;;;;2.15;1.33;;;;;;;0.03;100.00;99339.25;5008630;28;20041;-51
2022/09/29 00:37:27;;;;;;;2.28;0.30;;;;;;;-0.02;100.00;99331.91;5009047;28;20112;-49
2022/09/29 00:39:53;;;;;;;0.63;0.45;;;;;;;-0.03;100.00;99334.63;5009669;28;20029;-52
2022/09/29 00:42:19;;;;;;;1.58;0.70;;;;;;;-0.05;100.00;99334.81;5015016;28;20025;-51
2022/09/29 00:45:14;;;;;;;1.23;0.40;;;;;;;-0.01;100.00;99330.09;5009971;28;20041;-53
2022/09/29 00:47:42;;;;;;;0.40;0.40;;;;;;;-0.03;100.00;99324.22;5005443;28;20417;-51
2022/09/29 00:50:27;;;;;;;0.47;0.47;;;;;;;-0.04;100.00;99325.19;5010345;28;20041;-52
2022/09/29 00:52:57;;;;;;;0.65;0.32;;;;;;;-0.08;100.00;99329.06;5009292;28;20390;-53
2022/09/29 00:55:56;;;;;;;1.10;0.50;;;;;;;-0.10;100.00;99328.41;5009033;28;20521;-51
2022/09/29 00:58:38;;;;;;;0.88;0.38;;;;;;;-0.11;100.00;99321.56;5002384;28;20034;-51
2022/09/29 01:01:03;;;;;;;;;;;;;;;-0.12;100.00;99317.31;5003721;28;20040;-51
2022/09/29 01:03:40;;;;;;;1.25;0.28;;;;;;;-0.10;100.00;99318.81;5008147;28;19918;-56
2022/09/29 01:06:22;;;;;;;2.35;0.20;;;;;;;-0.11;100.00;99321.56;4997411;28;20034;-52
2022/09/29 01:08:56;;;;;;;0.90;0.55;;;;;;;-0.14;100.00;99322.66;5012840;28;20042;-51
2022/09/29 01:11:22;;;;;;;0.30;0.28;;;;;;;-0.17;100.00;99316.94;5010212;28;20044;-53
2022/09/29 01:13:49;;;;;;;2.90;0.60;;;;;;;-0.17;100.00;99322.97;5007054;28;20491;-51
2022/09/29 01:16:14;;;;;;;0.22;0.20;;;;;;;-0.18;100.00;99318.75;5007867;28;20496;-53
2022/09/29 01:18:41;;;;;;;1.45;0.40;;;;;;;-0.16;100.00;99319.38;5010824;28;20109;-52
2022/09/29 01:21:19;;;;;;;0.43;0.43;;;;;;;-0.17;100.00;99322.16;5010125;28;20033;-53
2022/09/29 01:24:03;;;;;;;0.17;0.15;;;;;;;-0.16;100.00;99318.56;5008496;28;20026;-51
2022/09/29 01:27:03;;;;;;;0.30;0.30;;;;;;;-0.14;100.00;99325.28;5008580;28;20041;-51
2022/09/29 01:29:54;;;;;;;0.20;0.10;;;;;;;-0.13;100.00;99320.88;5006349;28;20064;-55
2022/09/29 01:32:31;;;;;;;2.28;0.90;;;;;;;-0.13;100.00;99313.06;5005825;28;20108;-53
2022/09/29 01:35:26;;;;;;;0.20;0.20;;;;;;;-0.12;100.00;99319.94;5004653;28;20038;-51
2022/09/29 01:38:22;;;;;;;1.40;0.63;;;;;;;-0.12;100.00;99318.13;5001877;28;20511;-53
2022/09/29 01:41:10;;;;;;;1.08;0.45;;;;;;;-0.11;100.00;99314.53;5008774;28;20033;-52
2022/09/29 01:43:44;;;;;;;1.45;0.55;;;;;;;-0.05;100.00;99313.97;5009133;28;20018;-51
2022/09/29 01:46:25;;;;;;;1.30;0.55;;;;;;;-0.02;100.00;99320.66;5024486;28;20044;-53
2022/09/29 01:48:54;;;;;;;0.60;0.60;;;;;;;-0.03;100.00;99317.25;5003644;28;20032;-53
2022/09/29 01:51:29;;;;;;;0.73;0.70;;;;;;;-0.03;100.00;99314.63;5008701;28;20026;-52
2022/09/29 01:54:01;;;;;;;1.70;0.50;;;;;;;-0.07;100.00;99315.88;5001207;28;20360;-55
2022/09/29 01:56:34;;;;;;;0.73;0.35;;;;;;;-0.11;100.00;99311.13;5008489;28;20429;-51
2022/09/29 01:59:12;;;;;;;0.68;0.43;;;;;;;-0.12;100.00;99315.53;5005405;28;20037;-53
2022/09/29 02:01:42;;;;;;;1.20;0.57;;;;;;;-0.12;100.00;99306.91;5010540;28;20034;-52
2022/09/29 02:04:14;;;;;;;0.43;0.40;;;;;;;-0.09;100.00;99311.81;5009195;28;20313;-53
2022/09/29 02:06:58;;;;;;;1.65;0.50;;;;;;;-0.04;100.00;99317.38;5005878;28;20506;-53
2022/09/29 02:09:29;;;;;;;0.60;0.25;;;;;;;0.01;100.00;99309.94;4997845;28;20087;-52
2022/09/29 02:11:58;;;;;;;0.55;0.55;;;;;;;0.09;100.00;99315.19;5009158;28;20037;-53
2022/09/29 02:14:32;;;;;;;0.80;0.40;;;;;;;0.14;100.00;99314.75;5008443;28;20349;-51
2022/09/29 02:17:09;;;;;;;1.25;0.32;;;;;;;0.21;100.00;99313.97;5010037;28;20041;-54
2022/09/29 02:19:39;;;;;;;0.43;0.43;;;;;;;0.29;100.00;99317.63;5008812;28;20375;-52
2022/09/29 02:22:05;;;;;;;1.08;0.95;;;;;;;0.38;100.00;99314.06;5002376;28;20026;-51
2022/09/29 02:24:30;;;;;;;3.75;0.55;;;;;;;0.46;100.00;99311.50;5019239;28;20036;-51
2022/09/29 02:26:57;;;;;;;9.45;0.63;;;;;;;0.57;100.00;99313.06;5008047;28;20479;-52
2022/09/29 02:29:22;;;;;;;0.57;0.40;;;;;;;0.63;100.00;99315.84;5011751;28;20145;-50
2022/09/29 02:31:48;;;;;;;0.50;0.43;;;;;;;0.72;100.00;99313.28;5012028;28;20448;-50
2022/09/29 02:34:17;;;;;;;2.25;0.17;;;;;;;0.80;100.00;99310.69;5012762;28;20034;-53
2022/09/29 02:37:06;;;;;;;0.68;0.52;;;;;;;0.87;100.00;99306.50;5014543;28;20036;-52
2022/09/29 02:39:50;;;;;;;0.75;0.20;;;;;;;0.90;100.00;99311.38;4998512;28;20053;-53
2022/09/29 02:42:31;;;;;;;1.05;0.65;;;;;;;0.98;100.00;99308.00;5005007;28;20038;-51
2022/09/29 02:45:09;;;;;;;1.75;0.85;;;;;;;1.03;100.00;99308.34;5007492;28;20026;-50
2022/09/29 02:47:54;;;;;;;0.75;0.30;;;;;;;1.12;100.00;99317.03;5009776;28;20065;-50
2022/09/29 02:50:41;;;;;;;1.30;0.32;;;;;;;1.25;100.00;99312.19;5006228;28;20121;-50
2022/09/29 02:53:22;;;;;;;0.35;0.35;;;;;;;1.33;100.00;99301.75;5007711;28;20026;-54
2022/09/29 02:56:02;;;;;;;2.15;1.23;;;;;;;1.40;100.00;99302.75;5011728;28;20034;-55
2022/09/29 02:58:45;;;;;;;1.43;0.70;;;;;;;1.51;100.00;99296.38;5013046;28;20030;-53
2022/09/29 03:01:12;;;;;;;0.47;0.20;;;;;;;1.56;100.00;99298.53;5008721;28;20029;-54
2022/09/29 03:03:37;;;;;;;0.50;0.32;;;;;;;1.59;100.00;99304.22;5006812;28;20065;-54
2022/09/29 03:06:03;;;;;;;0.93;0.73;;;;;;;1.62;100.00;99298.66;5009016;28;20026;-51
2022/09/29 03:08:28;;;;;;;0.75;0.60;;;;;;;1.66;100.00;99296.56;5006020;28;20038;-52
2022/09/29 03:10:53;;;;;;;0.95;0.40;;;;;;;1.72;100.00;99303.75;5006313;28;20108;-52
2022/09/29 03:13:19;;;;;;;0.70;0.70;;;;;;;1.77;100.00;99303.28;5003143;28;20451;-52
2022/09/29 03:15:44;;;;;;;1.25;0.65;;;;;;;1.82;100.00;99303.59;5011725;28;20573;-55
2022/09/29 03:18:09;;;;;;;0.30;0.30;;;;;;;1.86;100.00;99307.50;5010332;28;20573;-51
2022/09/29 03:20:35;;;;;;;1.75;0.30;;;;;;;1.90;100.00;99309.63;5012090;28;20519;-51
2022/09/29 03:23:00;;;;;;;0.75;0.40;;;;;;;1.95;100.00;99304.72;5013450;28;20034;-55
2022/09/29 03:25:25;;;;;;;1.38;0.80;;;;;;;2.02;100.00;99311.94;5008784;28;20152;-52
2022/09/29 03:27:51;;;;;;;0.50;0.40;;;;;;;2.05;100.00;99309.78;5004688;28;20151;-54
2022/09/29 03:30:17;;;;;;;1.85;0.60;;;;;;;2.11;100.00;99310.94;5009951;28;20395;-55
2022/09/29 03:32:43;;;;;;;2.58;0.80;;;;;;;2.15;100.00;99314.88;5005029;28;20041;-53
2022/09/29 03:35:09;;;;;;;1.35;0.57;;;;;;;2.20;100.00;99311.75;5010202;28;20029;-53
2022/09/29 03:37:35;;;;;;;1.15;1.00;;;;;;;2.24;100.00;99319.09;5007869;28;20065;-53
2022/09/29 03:40:01;;;;;;;0.65;0.35;;;;;;;2.29;100.00;99308.94;5008745;28;20057;-51
2022/09/29 03:42:27;;;;;;;0.65;0.55;;;;;;;2.34;100.00;99311.88;5005902;28;20034;-51
2022/09/29 03:44:53;;;;;;;0.75;0.40;;;;;;;2.38;100.00;99307.16;5009128;28;20022;-52
2022/09/29 03:47:18;;;;;;;1.05;0.63;;;;;;;2.45;100.00;99307.28;5000856;28;20030;-54
2022/09/29 03:49:44;;;;;;;0.25;0.25;;;;;;;2.48;100.00;99301.72;4998931;28;20064;-55
2022/09/29 03:52:09;;;;;;;2.40;0.60;;;;;;;2.55;100.00;99311.34;5014553;28;20037;-52
2022/09/29 03:54:34;;;;;;;0.60;0.60;;;;;;;2.61;100.00;99312.50;5015856;28;20502;-52
2022/09/29 03:57:00;;;;;;;0.45;0.45;;;;;;;2.66;100.00;99314.59;5009744;28;20028;-53
2022/09/29 03:59:25;;;;;;;1.25;0.30;;;;;;;2.69;100.00;99309.03;5006172;28;20214;-53
2022/09/29 04:01:50;;;;;;;1.05;0.63;;;;;;;2.71;100.00;99307.03;5008047;28;20537;-57
2022/09/29 04:04:16;;;;;;;1.38;0.65;;;;;;;2.76;100.00;99308.19;5008260;28;20038;-55
2022/09/29 04:06:41;;;;;;;0.82;0.50;;;;;;;2.79;100.00;99310.47;5008471;28;20027;-53
2022/09/29 04:09:06;;;;;;;0.55;0.40;;;;;;;2.84;100.00;99309.97;5011497;28;20455;-56
2022/09/29 04:11:32;;;;;;;0.38;0.20;;;;;;;2.83;100.00;99324.84;5011590;28;20067;-52
2022/09/29 04:13:57;;;;;;;0.38;0.38;;;;;;;2.88;100.00;99320.91;5006559;28;20030;-54
2022/09/29 04:16:22;;;;;;;0.75;0.40;;;;;;;2.91;100.00;99324.00;5009800;28;20101;-56
2022/09/29 04:18:48;;;;;;;0.52;0.30;;;;;;;2.95;100.00;99324.47;5008704;28;20032;-54
2022/09/29 04:21:13;;;;;;;1.13;0.68;;;;;;;2.99;100.00;99331.81;5011819;28;20030;-51
2022/09/29 04:23:39;;;;;;;0.82;0.25;;;;;;;3.03;100.00;99327.06;5002877;28;20038;-53
2022/09/29 04:26:05;;;;;;;1.70;0.50;;;;;;;3.07;100.00;99333.56;5011068;28;20064;-52
2022/09/29 04:28:31;;;;;;;0.98;0.60;;;;;;;3.13;100.00;99332.09;5008424;28;20033;-51
2022/09/29 04:30:57;;;;;;;0.88;0.30;;;;;;;3.15;100.00;99338.81;5009562;28;20029;-55
2022/09/29 04:33:22;;;;;;;0.50;0.35;;;;;;;3.19;100.00;99340.06;5007976;28;20034;-50
2022/09/29 04:35:48;;;;;;;2.17;0.65;;;;;;;3.20;100.00;99339.09;5009506;28;20534;-51
2022/09/29 04:38:13;;;;;;;3.92;0.50;;;;;;;3.21;100.00;99348.59;5011454;28;20379;-52
2022/09/29 04:40:38;;;;;;;0.73;0.32;;;;;;;3.21;100.00;99342.53;5003806;28;20658;-53
2022/09/29 04:43:04;;;;;;;0.40;0.13;;;;;;;3.25;100.00;99342.03;5008854;28;20472;-51
2022/09/29 04:45:30;;;;;;;1.02;0.43;;;;;;;3.27;100.00;99340.03;5009873;28;20434;-51
2022/09/29 04:47:55;;;;;;;2.83;1.08;;;;;;;3.31;100.00;99344.94;5006437;28;20027;-51
2022/09/29 04:50:21;;;;;;;1.33;0.88;;;;;;;3.36;100.00;99353.91;5009852;28;20025;-52
2022/09/29 04:52:47;;;;;;;0.55;0.40;;;;;;;3.44;100.00;99350.44;5009446;28;20527;-52
2022/09/29 04:55:13;;;;;;;1.73;0.30;;;;;;;3.46;100.00;99358.97;5006349;28;20040;-52
2022/09/29 04:57:40;;;;;;;1.98;0.57;;;;;;;3.47;100.00;99360.56;5010793;28;20042;-57
2022/09/29 05:00:07;;;;;;;0.73;0.50;;;;;;;3.49;100.00;99353.38;5009750;28;20088;-54
2022/09/29 05:02:35;;;;;;;0.63;0.30;;;;;;;3.51;100.00;99359.22;4999617;28;20072;-52
2022/09/29 05:05:01;;;;;;;1.27;0.10;;;;;;;3.49;100.00;99361.22;5007196;28;20033;-54
2022/09/29 05:07:27;;;;;;;0.93;0.60;;;;;;;3.47;100.00;99361.38;5007219;28;20033;-56
2022/09/29 05:09:52;;;;;;;1.42;0.73;;;;;;;3.47;100.00;99357.94;5010439;28;20395;-54
2022/09/29 05:12:18;;;;;;;0.50;0.50;;;;;;;3.51;100.00;99351.34;5008980;28;20036;-54
2022/09/29 05:14:43;;;;;;;1.42;0.82;;;;;;;3.57;100.00;99358.56;5005069;28;20044;-53
2022/09/29 05:17:08;;;;;;;3.83;0.52;;;;;;;3.64;100.00;99363.91;5007802;28;20053;-55
2022/09/29 05:19:34;;;;;;;1.88;0.38;;;;;;;3.68;100.00;99363.38;5009883;28;20427;-54
2022/09/29 05:22:00;;;;;;;0.65;0.30;;;;;;;3.67;100.00;99367.00;5010094;28;20037;-55
2022/09/29 05:24:26;;;;;;;0.50;0.38;;;;;;;3.69;100.00;99366.81;5010143;28;20479;-55
2022/09/29 05:26:51;;;;;;;0.88;0.10;;;;;;;3.69;100.00;99370.28;5010046;28;20091;-56
2022/09/29 05:29:17;;;;;;;1.27;0.80;;;;;;;3.69;100.00;99365.03;5008720;28;20064;-55
2022/09/29 05:31:42;;;;;;;0.55;0.55;;;;;;;3.70;100.00;99361.41;5006923;28;20368;-53
2022/09/29 05:34:07;;;;;;;0.32;0.10;;;;;;;3.68;100.00;99363.38;5009482;28;20510;-53
2022/09/29 05:36:33;;;;;;;0.65;0.20;;;;;;;3.64;100.00;99364.75;5002969;28;20025;-51
2022/09/29 05:38:58;;;;;;;1.10;0.52;;;;;;;3.59;100.00;99374.94;5007685;28;20022;-51
2022/09/29 05:41:24;;;;;;;0.43;0.38;;;;;;;3.53;100.00;99372.97;5004335;28;20028;-51
2022/09/29 05:43:52;;;;;;;1.23;0.43;;;;;;;3.53;100.00;99377.41;5009282;28;20120;-52
2022/09/29 05:46:18;;;;;;;1.70;0.60;;;;;;;3.58;100.00;99375.09;5007513;28;20030;-55
2022/09/29 05:48:45;;;;;;;3.42;0.52;;;;;;;3.60;100.00;99373.13;5006083;28;20053;-55
2022/09/29 05:51:13;;;;;;;1.38;0.50;;;;;;;3.57;100.00;99376.09;5000444;28;20097;-53
2022/09/29 05:53:39;;;;;;;1.85;0.50;;;;;;;3.49;100.00;99374.31;5001426;28;20496;-51
2022/09/29 05:56:10;;;;;;;2.92;0.57;;;;;;;3.43;100.00;99386.31;5006195;28;20422;-56
2022/09/29 05:58:36;;;;;;;1.45;0.73;;;;;;;3.40;100.00;99388.44;5003808;28;20022;-57
2022/09/29 06:01:09;;;;;;;1.05;0.65;;;;;;;3.39;100.00;99394.69;5001380;28;20391;-53
2022/09/29 06:03:35;;;;;;;2.95;0.82;;;;;;;3.36;100.00;99400.28;5001530;28;20117;-54
2022/09/29 06:06:10;;;;;;;1.17;0.85;;;;;;;3.39;100.00;99407.78;5004383;28;20112;-50
2022/09/29 06:08:36;;;;;;;0.73;0.40;;;;;;;3.43;100.00;99409.91;5005148;28;20030;-55
2022/09/29 06:11:30;;;;;;;3.28;0.85;;;;;;;3.46;100.00;99416.59;5001421;28;20030;-53
2022/09/29 06:13:55;;;;;;;2.30;0.22;;;;;;;3.44;100.00;99416.78;4998686;28;20038;-53
2022/09/29 06:16:24;;;;;;;0.88;0.30;;;;;;;3.44;100.00;99422.00;5007710;28;20060;-53
2022/09/29 06:18:50;;;;;;;1.92;0.30;;;;;;;3.40;100.00;99425.13;5004590;28;20018;-55
2022/09/29 06:21:18;;;;;;;0.30;0.22;;;;;;;3.42;100.00;99420.53;5006110;28;20029;-53
2022/09/29 06:23:44;;;;;;;1.67;0.20;;;;;;;3.42;100.00;99423.97;5002574;28;20026;-51
2022/09/29 06:26:12;;;;;;;0.63;0.50;;;;;;;3.44;100.00;99434.31;5006923;28;20108;-53
2022/09/29 06:28:38;;;;;;;3.83;0.52;;;;;;;3.37;100.00;99433.34;5007477;28;20073;-57
2022/09/29 06:31:10;;;;;;;0.50;0.40;;;;;;;3.28;100.00;99429.94;5005986;28;21859;-50
2022/09/29 06:33:36;;;;;;;1.60;0.17;;;;;;;3.17;100.00;99423.25;5001616;28;20045;-53
2022/09/29 06:38:51;;;;;;;0.10;0.10;;;;;;;3.09;100.00;99436.38;5007947;28;20064;-55
2022/09/29 06:41:18;;;;;;;0.63;0.35;;;;;;;3.09;100.00;99428.50;5006825;28;20026;-50
2022/09/29 06:43:43;;;;;;;1.48;0.55;;;;;;;3.13;100.00;99437.69;5008671;28;20405;-51
2022/09/29 06:46:09;;;;;;;1.08;1.05;;;;;;;3.20;100.00;99437.81;5006935;28;20475;-56
2022/09/29 06:48:34;;;;;;;0.45;0.15;;;;;;;3.28;100.00;99441.25;5016918;28;20285;-50
2022/09/29 06:50:59;;;;;;;1.23;0.38;;;;;;;3.41;100.00;99450.38;5000621;28;20130;-53
2022/09/29 06:53:25;;;;;;;1.38;0.32;;;;;;;3.53;100.00;99445.56;5003732;28;20092;-52
2022/09/29 06:55:55;;;;;;;1.17;1.08;;;;;;;3.61;100.00;99446.31;5002423;28;20259;-54
2022/09/29 06:58:21;;;;;;;1.20;0.55;;;;;;;3.68;100.00;99452.53;5004996;28;20088;-52
2022/09/29 07:00:46;;;;;;;0.47;0.45;;;;;;;3.70;100.00;99455.78;5008450;28;20030;-53
2022/09/29 07:03:12;;;;;;;2.10;0.65;;;;;;;3.70;100.00;99450.56;5003924;28;20088;-50
2022/09/29 07:05:37;;;;;;;1.40;0.38;;;;;;;3.79;100.00;99461.81;5004801;28;20468;-50
2022/09/29 07:08:03;;;;;;;2.78;0.32;;;;;;;3.90;100.00;99471.13;5010227;28;20029;-51
2022/09/29 07:10:28;;;;;;;1.40;0.80;;;;;;;4.00;100.00;99468.25;5008969;28;20026;-54
2022/09/29 07:12:54;;;;;;;2.95;0.47;;;;;;;4.10;100.00;99476.72;5008394;28;20041;-52
2022/09/29 07:15:20;;;;;;;0.73;0.43;;;;;;;4.24;100.00;99470.72;5007580;28;20061;-55
2022/09/29 07:17:45;;;;;;;2.13;0.30;;;;;;;4.37;100.00;99478.84;5010695;28;20061;-50
2022/09/29 07:20:10;;;;;;;2.35;0.65;;;;;;;4.53;100.00;99484.97;5007410;28;20390;-55
2022/09/29 07:22:36;;;;;;;3.10;0.60;;;;;;;4.68;100.00;99475.31;5005946;28;20451;-52
2022/09/29 07:25:01;;;;;;;1.45;0.30;;;;;;;4.83;100.00;99478.00;5006325;28;20522;-54
2022/09/29 07:27:27;;;;;;;1.77;0.22;;;;;;;5.00;100.00;99483.88;5009369;28;20088;-56
2022/09/29 07:29:53;;;;;;;1.40;0.50;;;;;;;5.11;100.00;99480.00;5015824;28;20117;-52
2022/09/29 07:32:18;;;;;;;0.43;0.43;;;;;;;5.23;100.00;99479.38;5011210;28;20045;-56
2022/09/29 07:34:44;;;;;;;1.98;0.95;;;;;;;5.36;100.00;99480.56;5011234;28;20037;-54
2022/09/29 07:37:10;;;;;;;0.77;0.60;;;;;;;5.52;100.00;99484.81;5010014;28;20180;-54
2022/09/29 07:39:36;;;;;;;0.95;0.70;;;;;;;5.70;100.00;99493.13;5007469;28;20022;-53
2022/09/29 07:42:02;;;;;;;1.85;0.20;;;;;;;5.86;100.00;99492.13;5012116;28;20418;-51
2022/09/29 07:44:29;;;;;;;0.75;0.60;;;;;;;6.07;100.00;99496.66;5007793;28;20026;-51
2022/09/29 07:46:54;;;;;;;0.85;0.28;;;;;;;6.30;100.00;99496.50;5012540;28;20041;-53
2022/09/29 07:49:20;;;;;;;1.25;0.57;;;;;;;6.50;100.00;99501.94;5005758;28;20055;-56
2022/09/29 07:51:45;;;;;;;0.88;0.45;;;;;;;6.64;100.00;99501.06;5012633;28;20026;-51
2022/09/29 07:54:10;;;;;;;1.70;0.43;;;;;;;6.76;100.00;99502.19;5010463;28;20030;-54
2022/09/29 07:56:36;;;;;;;0.40;0.30;;;;;;;6.90;100.00;99502.31;5012267;28;20064;-51
2022/09/29 07:59:02;;;;;;;0.28;0.28;;;;;;;6.93;100.00;99502.72;5011470;28;20030;-54
2022/09/29 08:01:28;;;;;;;0.25;0.25;;;;;;;7.09;100.00;99506.88;5013013;28;20550;-54
2022/09/29 08:03:54;;;;;;;0.40;0.20;;;;;;;7.45;100.00;99511.19;5011094;28;20101;-56
2022/09/29 08:06:24;;;;;;;0.28;0.25;;;;;;;7.76;100.00;99510.72;5012004;28;20064;-54
2022/09/29 08:08:50;;;;;;;0.10;0.10;;;;;;;8.12;100.00;99516.75;5018896;28;20033;-58
2022/09/29 08:11:21;;;;;;;0.75;0.45;;;;;;;8.38;100.00;99521.28;5007920;28;20091;-54
2022/09/29 08:13:50;;;;;;;1.40;0.20;;;;;;;8.68;100.00;99521.78;5010272;28;20057;-58
2022/09/29 08:16:15;;;;;;;0.40;0.40;;;;;;;8.97;100.00;99517.94;5005710;28;20045;-54
2022/09/29 08:18:41;;;;;;;0.57;0.20;;;;;;;9.10;100.00;99514.47;5009894;28;20379;-56
2022/09/29 08:21:07;;;;;;;0.28;0.28;;;;;;;9.13;100.00;99514.06;5007942;28;20103;-55
2022/09/29 08:23:40;;;;;;;0.20;0.20;;;;;;;9.15;100.00;99517.31;5002634;28;20483;-57
2022/09/29 08:26:09;;;;;;;0.10;0.08;;;;;;;9.23;100.00;99530.31;5007607;28;20046;-54
2022/09/29 08:28:36;;;;;;;0.38;0.20;;;;;;;9.30;100.00;99533.78;5008678;28;20506;-58
2022/09/29 08:31:11;;;;;;;2.15;0.60;;;;;;;9.42;100.00;99538.44;5008910;28;20029;-58
2022/09/29 08:33:37;;;;;;;1.65;0.50;;;;;;;9.46;100.00;99539.66;4998750;28;20081;-58
2022/09/29 08:36:13;;;;;;;0.55;0.30;;;;;;;9.50;100.00;99541.69;5008999;28;20034;-53
2022/09/29 08:38:41;;;;;;;0.30;0.22;;;;;;;9.55;100.00;99544.53;5011191;28;20219;-52
2022/09/29 08:41:31;;;;;;;0.60;0.60;;;;;;;9.58;100.00;99551.25;5011977;28;20108;-55
2022/09/29 08:44:19;;;;;;;0.15;0.13;;;;;;;9.55;100.00;99555.13;5003448;28;20058;-52
2022/09/29 08:46:49;;;;;;;0.60;0.60;;;;;;;9.50;100.00;99554.09;5004188;28;20038;-53
2022/09/29 08:49:32;;;;;;;1.45;0.20;;;;;;;9.48;100.00;99556.16;5010104;28;20033;-51
2022/09/29 08:52:05;;;;;;;0.40;0.30;;;;;;;9.53;100.00;99556.34;5005033;28;20130;-51
2022/09/29 08:54:33;;;;;;;0.70;0.57;;;;;;;9.57;100.00;99566.28;5007666;28;20029;-52
2022/09/29 08:57:00;;;;;;;1.63;0.50;;;;;;;9.61;100.00;99558.75;5010738;28;20113;-54
2022/09/29 08:59:29;;;;;;;0.25;0.13;;;;;;;9.68;100.00;99570.16;5010839;28;20448;-54
2022/09/29 09:02:19;;;;;;;1.05;0.25;;;;;;;9.72;100.00;99566.06;5010572;28;20030;-58
2022/09/29 09:04:50;;;;;;;0.38;0.15;;;;;;;9.83;100.00;99573.38;5006862;28;20475;-57
2022/09/29 09:07:45;;;;;;;0.45;0.45;;;;;;;9.85;100.00;99572.34;5004708;28;20030;-56
2022/09/29 09:10:37;;;;;;;1.20;0.60;;;;;;;9.89;100.00;99576.22;5006888;28;20034;-56
2022/09/29 09:13:30;;;;;;;2.92;0.50;;;;;;;10.02;100.00;99582.28;5000940;28;20037;-59
2022/09/29 09:16:10;;;;;;;5.13;1.40;;;;;;;10.12;100.00;99578.34;5003442;28;20042;-58
2022/09/29 09:18:51;;;;;;;0.82;0.75;;;;;;;10.11;100.00;99585.50;5008184;28;20105;-58
2022/09/29 09:21:19;;;;;;;;;;;;;;;10.11;100.00;99584.69;5006677;28;20422;-54
2022/09/29 09:23:56;;;;;;;1.60;1.05;;;;;;;10.17;100.00;99584.66;5006517;28;19925;-54
2022/09/29 09:26:36;;;;;;;1.15;1.05;;;;;;;10.24;100.00;99590.72;5010199;28;20050;-53
2022/09/29 09:29:10;;;;;;;1.48;0.93;;;;;;;10.36;100.00;99595.41;5007004;28;20038;-56
2022/09/29 09:31:45;;;;;;;1.17;0.95;;;;;;;10.60;100.00;99593.84;5007423;28;20092;-55
2022/09/29 09:34:21;;;;;;;1.75;0.52;;;;;;;10.83;100.00;99596.78;5009422;28;20383;-51
2022/09/29 09:36:48;;;;;;;2.28;0.77;;;;;;;10.96;100.00;99590.56;5005890;28;20030;-55
2022/09/29 09:39:29;;;;;;;1.45;0.73;;;;;;;11.31;100.00;99600.72;5006967;28;20033;-51
2022/09/29 09:41:58;;;;;;;0.60;0.60;;;;;;;11.49;100.00;99600.75;5010163;28;20065;-52
2022/09/29 09:44:33;;;;;;;0.63;0.63;;;;;;;11.48;100.00;99591.16;5005176;28;20041;-55
2022/09/29 09:47:08;;;;;;;1.20;0.60;;;;;;;11.29;100.00;99592.97;5001188;28;20060;-56
2022/09/29 09:49:44;;;;;;;3.58;0.73;;;;;;;11.26;100.00;99601.38;5003472;28;20402;-58
2022/09/29 09:52:25;;;;;;;1.08;0.77;;;;;;;11.19;100.00;99616.53;5007812;28;20026;-55
2022/09/29 09:54:55;;;;;;;0.98;0.88;;;;;;;11.16;100.00;99616.16;5007735;28;20065;-52
2022/09/29 09:57:37;;;;;;;0.75;0.75;;;;;;;11.08;100.00;99612.72;5007553;28;20151;-57
2022/09/29 10:00:11;;;;;;;2.80;0.80;;;;;;;11.06;100.00;99613.97;5005142;28;20041;-54
2022/09/29 10:02:42;;;;;;;0.77;0.45;;;;;;;11.12;100.00;99632.47;5009043;28;20534;-53
2022/09/29 10:05:12;;;;;;;0.50;0.47;;;;;;;11.14;100.00;99630.44;5003174;28;20484;-58
2022/09/29 10:07:37;;;;;;;0.20;0.20;;;;;;;11.11;100.00;99628.22;5007196;28;20483;-55
2022/09/29 10:10:13;;;;;;;0.60;0.40;;;;;;;11.19;100.00;99637.75;5002775;28;20041;-52
2022/09/29 10:12:38;;;;;;;0.98;0.35;;;;;;;11.19;100.00;99631.63;5006521;28;20038;-56
2022/09/29 10:15:14;;;;;;;2.80;0.35;;;;;;;11.27;100.00;99632.16;5006083;28;20498;-56
2022/09/29 10:17:44;;;;;;;1.88;0.30;;;;;;;11.36;100.00;99635.38;5006924;28;20112;-52
2022/09/29 10:20:09;;;;;;;0.40;0.38;;;;;;;11.48;100.00;99638.94;5006394;28;20125;-56
2022/09/29 10:22:35;;;;;;;0.57;0.43;;;;;;;11.52;100.00;99640.13;5007699;28;20108;-53
2022/09/29 10:25:19;;;;;;;0.47;0.47;;;;;;;11.53;100.00;99639.09;5006089;28;20472;-52
2022/09/29 10:27:49;;;;;;;1.17;0.95;;;;;;;11.46;100.00;99634.88;5007524;28;20034;-57
2022/09/29 10:30:17;;;;;;;3.13;0.80;;;;;;;11.31;100.00;99645.84;5007853;28;20037;-53
2022/09/29 10:32:44;;;;;;;0.73;0.50;;;;;;;11.06;100.00;99651.91;5009063;28;20033;-50
2022/09/29 10:35:26;;;;;;;2.10;0.85;;;;;;;10.89;100.00;99656.94;5005294;28;20045;-49
2022/09/29 10:38:04;;;;;;;1.60;0.40;;;;;;;10.85;100.00;99660.22;5007136;28;20038;-51
2022/09/29 10:40:30;;;;;;;0.50;0.40;;;;;;;10.91;100.00;99660.16;5002173;28;20435;-51
2022/09/29 10:42:56;;;;;;;0.50;0.50;;;;;;;11.00;100.00;99665.25;5008253;28;20029;-55
2022/09/29 10:45:28;;;;;;;2.20;0.80;;;;;;;11.08;100.00;99663.13;5005542;28;20113;-54
2022/09/29 10:47:57;;;;;;;1.13;0.75;;;;;;;11.13;100.00;99662.50;5007157;28;20439;-53
2022/09/29 10:50:31;;;;;;;1.02;1.02;;;;;;;11.11;100.00;99664.53;5013444;28;20030;-56
2022/09/29 10:53:05;;;;;;;2.65;0.80;;;;;;;11.12;100.00;99666.97;5009422;28;20125;-57
2022/09/29 10:55:35;;;;;;;2.28;0.70;;;;;;;11.20;100.00;99665.88;5006949;28;20117;-51
2022/09/29 10:58:18;;;;;;;0.85;0.85;;;;;;;11.30;100.00;99665.44;5012593;28;20053;-50
2022/09/29 11:00:44;;;;;;;0.65;0.55;;;;;;;11.34;100.00;99669.28;5010668;28;20036;-51
2022/09/29 11:03:26;;;;;;;0.95;0.85;;;;;;;11.45;100.00;99671.22;5013457;28;20029;-53
2022/09/29 11:05:58;;;;;;;1.63;1.15;;;;;;;11.56;100.00;99662.59;5010881;28;20541;-55
2022/09/29 11:08:26;;;;;;;0.70;0.52;;;;;;;11.71;100.00;99667.53;5006605;28;20459;-58
2022/09/29 11:11:22;;;;;;;1.02;0.65;;;;;;;11.92;100.00;99671.66;5012875;28;20080;-60
2022/09/29 11:13:48;;;;;;;1.00;0.90;;;;;;;11.90;100.00;99664.94;5013167;28;20337;-54
2022/09/29 11:16:16;;;;;;;1.45;1.25;;;;;;;12.12;100.00;99670.66;5012821;28;20041;-57
2022/09/29 11:18:49;;;;;;;2.95;1.58;;;;;;;12.12;100.00;99676.78;5011938;28;20394;-54
2022/09/29 11:21:31;;;;;;;1.08;0.80;;;;;;;12.13;100.00;99678.41;5010586;28;20058;-56
2022/09/29 11:24:12;;;;;;;1.33;1.23;;;;;;;12.12;100.00;99681.28;5014234;28;20026;-51
2022/09/29 11:27:04;;;;;;;0.80;0.80;;;;;;;12.28;100.00;99691.31;5010754;28;20538;-54
2022/09/29 11:29:33;;;;;;;2.45;1.63;;;;;;;12.38;100.00;99678.34;5009828;28;20089;-53
2022/09/29 11:32:11;;;;;;;0.77;0.75;;;;;;;12.38;100.00;99683.66;5010318;28;20123;-55
2022/09/29 11:34:37;;;;;;;5.43;1.02;;;;;;;12.27;100.00;99694.22;5000870;28;20072;-54
2022/09/29 11:37:14;;;;;;;1.75;0.90;;;;;;;12.19;100.00;99692.66;5008309;28;20060;-55
2022/09/29 11:39:46;;;;;;;0.52;0.52;;;;;;;12.23;100.00;99704.47;5006531;28;20057;-58
2022/09/29 11:42:39;;;;;;;1.38;0.55;;;;;;;12.30;100.00;99704.41;5008929;28;20092;-50
2022/09/29 11:45:13;;;;;;;0.73;0.40;;;;;;;12.42;100.00;99705.31;5011102;28;20096;-58
2022/09/29 11:47:39;;;;;;;1.88;0.77;;;;;;;12.69;100.00;99710.31;5011879;28;20562;-58
2022/09/29 11:50:17;;;;;;;0.77;0.77;;;;;;;12.78;100.00;99703.66;5012887;28;20072;-55